createdAt,value
2023-03-02T11:18:47.449Z,7.64
2023-03-02T11:29:32.544Z,8.34
2023-03-02T11:32:18.505Z,8.47
2023-03-02T11:35:55.895Z,8.77
2023-03-02T11:38:38.531Z,9.17
2023-03-02T11:48:50.731Z,9.30
2023-03-02T11:52:01.880Z,9.25
2023-03-02T11:58:35.013Z,9.43
2023-03-02T12:04:48.459Z,9.24
2023-03-02T12:11:36.601Z,9.82
2023-03-02T12:17:33.282Z,9.54
2023-03-02T12:20:42.114Z,10.00
2023-03-02T12:23:40.143Z,9.83
2023-03-02T12:26:46.891Z,9.90
2023-03-02T12:29:29.613Z,10.30
2023-03-02T12:32:33.482Z,10.24
2023-03-02T12:38:20.345Z,10.18
2023-03-02T12:41:25.769Z,10.54
2023-03-02T12:44:22.621Z,10.72
2023-03-02T12:47:09.791Z,10.54
2023-03-02T12:50:15.390Z,10.40
2023-03-02T12:53:05.159Z,10.54
2023-03-02T12:56:17.157Z,10.52
2023-03-02T13:08:19.384Z,10.75
2023-03-02T13:11:00.756Z,10.70
2023-03-02T13:13:45.513Z,11.27
2023-03-02T13:16:37.105Z,11.41
2023-03-02T13:19:39.610Z,11.38
2023-03-02T13:22:13.180Z,10.92
2023-03-02T13:29:03.034Z,10.85
2023-03-02T13:31:42.156Z,10.61
2023-03-02T13:34:38.814Z,11.12
2023-03-02T13:37:22.366Z,11.33
2023-03-02T13:40:06.712Z,11.36
2023-03-02T13:43:00.471Z,11.46
2023-03-02T13:45:39.451Z,11.43
2023-03-02T13:48:28.149Z,10.76
2023-03-02T13:51:13.831Z,10.32
2023-03-02T13:54:27.367Z,10.29
2023-03-02T13:57:07.510Z,10.20
2023-03-02T14:00:19.999Z,10.27
2023-03-02T14:03:02.331Z,10.35
2023-03-02T14:05:41.009Z,10.55
2023-03-02T14:08:21.284Z,10.30
2023-03-02T14:11:12.546Z,10.42
2023-03-02T14:14:02.543Z,10.64
2023-03-02T14:16:30.647Z,10.64
2023-03-02T14:19:06.700Z,10.99
2023-03-02T14:21:46.597Z,11.12
2023-03-02T14:24:25.340Z,10.81
2023-03-02T14:30:01.305Z,10.48
2023-03-02T14:32:31.854Z,10.78
2023-03-02T14:35:07.708Z,10.58
2023-03-02T14:37:38.723Z,10.58
2023-03-02T14:40:21.801Z,10.70
2023-03-02T14:42:56.479Z,10.79
2023-03-02T14:48:14.330Z,10.29
2023-03-02T14:51:01.092Z,9.93
2023-03-02T14:53:41.677Z,9.94
2023-03-02T14:56:27.869Z,9.88
2023-03-02T14:59:04.250Z,9.84
2023-03-02T15:01:57.750Z,9.87
2023-03-02T15:04:28.261Z,9.67
2023-03-02T15:07:14.158Z,9.65
2023-03-02T15:09:51.079Z,9.50
2023-03-02T15:12:29.834Z,9.53
2023-03-02T15:16:02.043Z,9.26
2023-03-02T15:17:56.620Z,9.07
2023-03-02T15:20:32.724Z,9.15
2023-03-02T15:23:11.109Z,9.35
2023-03-02T15:25:46.842Z,9.40
2023-03-02T15:28:21.538Z,9.44
2023-03-02T15:30:51.040Z,9.67
2023-03-02T15:33:29.559Z,9.42
2023-03-02T15:36:12.224Z,9.40
2023-03-02T15:38:46.638Z,9.42
2023-03-02T15:41:18.936Z,9.07
2023-03-02T15:44:33.705Z,9.24
2023-03-02T15:47:09.580Z,9.12
2023-03-02T15:50:10.257Z,9.09
2023-03-02T15:52:51.384Z,9.14
2023-03-02T15:55:40.756Z,8.88
2023-03-02T16:02:06.611Z,8.09
2023-03-02T16:04:41.788Z,7.68
2023-03-02T16:10:51.953Z,6.96
2023-03-02T16:13:33.102Z,6.53
2023-03-02T16:16:10.417Z,6.32
2023-03-02T16:19:19.550Z,6.04
2023-03-02T16:21:58.231Z,5.82
2023-03-02T16:24:28.775Z,5.82
2023-03-02T16:30:32.493Z,5.65
2023-03-02T16:35:59.452Z,5.12
2023-03-02T16:38:39.750Z,5.14
2023-03-02T16:41:20.566Z,4.91
2023-03-02T16:44:09.240Z,4.74
2023-03-02T16:52:25.345Z,4.30
2023-03-02T17:01:59.437Z,3.96
2023-03-02T17:04:36.576Z,3.74
2023-03-02T17:07:26.579Z,3.78
2023-03-02T17:10:07.453Z,3.60
2023-03-02T17:12:47.929Z,3.47
2023-03-02T17:15:20.706Z,3.24
2023-03-02T17:18:36.275Z,3.36
2023-03-02T17:25:23.581Z,3.10
2023-03-02T17:48:31.285Z,2.31
2023-03-02T17:51:15.778Z,2.09
2023-03-02T18:06:28.128Z,1.65
2023-03-02T18:08:56.288Z,1.69
2023-03-02T18:15:39.115Z,1.65
2023-03-02T18:18:46.058Z,1.58
2023-03-02T18:28:08.367Z,1.17
2023-03-02T18:30:59.461Z,1.13
2023-03-02T18:40:54.280Z,1.19
2023-03-02T18:44:21.910Z,1.13
2023-03-02T19:53:38.246Z,0.39
2023-03-02T22:38:37.066Z,0.48
